This is the latest recevied weather packets stored in our database for station/object LKPR. If no packets are shown the sender has not sent any weather packets the latest 1 day(s).
| Time | Temp. | Humidity | Pressure | Rain* | Wind** | Luminosity | Snow |
|---|---|---|---|---|---|---|---|
| 1778176981 | 11.67° C | 87% | 1014 hPa | - | - | - | - |
| 1778175181 | 11.67° C | 87% | 1013 hPa | - | - | - | - |
| 1778174281 | 11.67° C | 81% | 1013 hPa | - | - | - | - |
| 1778173381 | 11.67° C | 81% | 1013 hPa | - | - | - | - |
| 1778172481 | 12.78° C | 76% | 1013 hPa | - | - | - | - |
| 1778171580 | 12.78° C | 76% | 1013 hPa | - | - | - | - |
| 1778170682 | 12.78° C | 71% | 1013 hPa | - | - | - | - |
| 1778169781 | 12.78° C | 71% | 1012 hPa | - | - | - | - |
| 1778168882 | 12.78° C | 71% | 1012 hPa | - | - | - | - |
| 1778167981 | 12.78° C | 71% | 1012 hPa | - | - | - | - |
| 1778167082 | 12.78° C | 71% | 1012 hPa | - | - | - | - |
| 1778166181 | 12.78° C | 71% | 1012 hPa | - | - | - | - |
| 1778164381 | 15° C | 62% | 1012 hPa | - | - | - | - |
| 1778163481 | 15° C | 62% | 1012 hPa | - | - | - | - |
| 1778162581 | 15° C | 62% | 1012 hPa | - | - | - | - |
| 1778161681 | 15.56° C | 59% | 1012 hPa | - | - | - | - |
| 1778160781 | 15.56° C | 59% | 1012 hPa | - | - | - | - |
| 1778159881 | 15.56° C | 59% | 1012 hPa | - | - | - | - |
| 1778158981 | 15.56° C | 59% | 1012 hPa | - | - | - | - |
| 1778158081 | 15.56° C | 63% | 1012 hPa | - | - | - | - |
| 1778157181 | 15.56° C | 63% | 1012 hPa | - | - | - | - |
| 1778156282 | 15° C | 62% | 1012 hPa | - | - | - | - |
| 1778155381 | 15° C | 62% | 1012 hPa | - | - | - | - |
| 1778154482 | 13.89° C | 67% | 1012 hPa | - | - | - | - |
| 1778153581 | 13.89° C | 67% | 1012 hPa | - | - | - | - |
* Rain since midnight (hover to see other rain measurements)
** Current wind speed in m/s (hover to see current wind gust speed)